Time;durP1;ratioP1;P1;durP2;ratioP2;P2;SDS_P1;SDS_P2;PMS_P1;PMS_P2;Temp;Humidity;BMP_temperature;BMP_pressure;BME280_temperature;BME280_humidity;BME280_pressure;Samples;Min_cycle;Max_cycle;Signal;HPM_P1;HPM_P2
2023/08/06 00:04:03;;;;;;;2.10;1.57;;;14.90;99.90;;;;;;5116491;28;20234;-44
2023/08/06 00:06:30;;;;;;;6.93;1.93;;;14.90;99.90;;;;;;5097802;28;20224;-42
2023/08/06 00:08:57;;;;;;;5.00;1.60;;;14.90;99.90;;;;;;5116782;28;20186;-43
2023/08/06 00:11:23;;;;;;;2.50;1.63;;;14.90;99.90;;;;;;5116469;28;20186;-43
2023/08/06 00:13:55;;;;;;;1.73;1.37;;;14.80;99.90;;;;;;5117286;28;20576;-44
2023/08/06 00:16:21;;;;;;;4.97;1.50;;;14.90;99.90;;;;;;5082877;28;20198;-44
2023/08/06 00:19:04;;;;;;;2.03;1.53;;;14.80;99.90;;;;;;5116342;28;20178;-44
2023/08/06 00:22:02;;;;;;;3.53;1.60;;;14.80;99.90;;;;;;5097959;28;20181;-44
2023/08/06 00:25:53;;;;;;;1.77;1.57;;;14.90;99.90;;;;;;5081679;28;20206;-43
2023/08/06 00:28:43;;;;;;;3.00;1.70;;;14.80;99.90;;;;;;5106296;28;20178;-44
2023/08/06 00:31:27;;;;;;;3.17;1.70;;;14.80;99.90;;;;;;5096412;28;20183;-44
2023/08/06 00:34:17;;;;;;;2.47;1.70;;;14.80;99.90;;;;;;5115773;28;20230;-45
2023/08/06 00:48:10;;;;;;;6.40;2.33;;;14.70;99.90;;;;;;5115567;28;20205;-43
2023/08/06 00:53:59;;;;;;;1.90;1.60;;;14.80;99.90;;;;;;5115672;28;20162;-43
2023/08/06 00:56:27;;;;;;;7.13;1.60;;;14.80;99.90;;;;;;5096174;28;20677;-43
2023/08/06 01:06:23;;;;;;;3.00;1.40;;;14.90;99.90;;;;;;5111018;28;20294;-43
2023/08/06 01:09:06;;;;;;;4.87;1.47;;;14.90;99.90;;;;;;5114687;28;20174;-42
2023/08/06 01:12:07;;;;;;;3.63;1.20;;;14.90;99.90;;;;;;5096310;28;20192;-43
2023/08/06 01:15:13;;;;;;;2.00;1.07;;;14.90;99.90;;;;;;5115139;28;20558;-44
2023/08/06 01:17:43;;;;;;;1.10;0.90;;;14.90;99.90;;;;;;5100666;28;20261;-43
2023/08/06 01:20:22;;;;;;;1.97;1.17;;;14.90;99.90;;;;;;5114056;28;20187;-45
2023/08/06 01:24:17;;;;;;;3.30;1.37;;;14.90;99.90;;;;;;5096040;28;20189;-43
2023/08/06 02:22:18;;;;;;;3.80;1.07;;;14.80;99.90;;;;;;2397633;22;20231;-43
2023/08/06 02:24:43;;;;;;;2.00;1.50;;;14.70;99.90;;;;;;5138313;27;20223;-42
2023/08/06 02:27:09;;;;;;;3.40;1.73;;;14.70;99.90;;;;;;5119548;27;20202;-44
2023/08/06 02:29:34;;;;;;;4.07;1.43;;;14.70;99.90;;;;;;5138357;27;20189;-43
2023/08/06 02:32:02;;;;;;;1.63;1.10;;;14.70;99.90;;;;;;5119787;27;20577;-43
2023/08/06 02:34:27;;;;;;;4.53;1.40;;;14.60;99.90;;;;;;5138158;27;20190;-44
2023/08/06 02:36:53;;;;;;;2.83;1.37;;;14.60;99.90;;;;;;5137856;27;20200;-43
2023/08/06 02:39:19;;;;;;;3.93;1.57;;;14.60;99.90;;;;;;5137882;27;20189;-44
2023/08/06 02:41:44;;;;;;;2.23;1.53;;;14.60;99.90;;;;;;5138194;27;20185;-44
2023/08/06 02:44:10;;;;;;;2.57;1.50;;;14.60;99.90;;;;;;5137825;27;20256;-45
2023/08/06 02:46:35;;;;;;;4.80;1.83;;;14.60;99.90;;;;;;5137891;27;20283;-44
2023/08/06 02:49:01;;;;;;;8.00;1.87;;;14.50;99.90;;;;;;5137894;27;20186;-44
2023/08/06 02:51:27;;;;;;;3.07;1.70;;;14.60;99.90;;;;;;5138577;27;20551;-45
2023/08/06 02:53:52;;;;;;;2.73;1.43;;;14.50;99.90;;;;;;5138112;27;20178;-46
2023/08/06 02:56:50;;;;;;;4.07;1.47;;;14.50;99.90;;;;;;5138569;27;20211;-44
2023/08/06 02:59:25;;;;;;;1.47;1.17;;;14.50;99.90;;;;;;5138476;27;20197;-43
2023/08/06 03:02:10;;;;;;;3.17;2.03;;;14.50;99.90;;;;;;5120788;27;20528;-50
2023/08/06 03:05:20;;;;;;;2.77;1.57;;;14.50;99.90;;;;;;5136764;27;20215;-48
2023/08/06 03:08:27;;;;;;;6.03;1.50;;;14.60;99.90;;;;;;5087741;27;20188;-43
2023/08/06 03:10:54;;;;;;;2.23;1.50;;;14.60;99.90;;;;;;5119096;27;20215;-43
2023/08/06 03:13:20;;;;;;;4.83;1.30;;;14.50;99.90;;;;;;5137478;27;20174;-43
2023/08/06 03:16:11;;;;;;;2.90;1.30;;;14.60;99.90;;;;;;5137920;27;20281;-45
2023/08/06 03:18:42;;;;;;;5.93;2.03;;;14.60;99.90;;;;;;5101953;28;20193;-43
2023/08/06 03:31:50;;;;;;;2.90;1.10;;;14.60;99.90;;;;;;5138198;27;20247;-45
2023/08/06 03:34:17;;;;;;;1.83;1.00;;;14.60;99.90;;;;;;5120448;27;20193;-49
2023/08/06 03:36:43;;;;;;;4.90;1.80;;;14.60;99.90;;;;;;5136895;27;20652;-49
2023/08/06 03:39:11;;;;;;;3.33;2.37;;;14.70;99.90;;;;;;5119313;27;20192;-48
2023/08/06 03:41:37;;;;;;;1.70;1.20;;;14.70;99.90;;;;;;5118508;27;20181;-50
2023/08/06 03:44:04;;;;;;;4.77;1.40;;;14.70;99.90;;;;;;5137198;27;20208;-49
2023/08/06 03:46:33;;;;;;;3.07;1.20;;;14.60;99.90;;;;;;5118628;27;20316;-49
2023/08/06 03:49:00;;;;;;;2.87;1.20;;;14.70;99.90;;;;;;5136679;27;20231;-49
2023/08/06 03:51:25;;;;;;;2.23;1.33;;;14.70;99.90;;;;;;5118133;27;20644;-50
2023/08/06 03:53:51;;;;;;;5.73;1.43;;;14.70;99.90;;;;;;5136868;27;20185;-51
2023/08/06 03:56:17;;;;;;;3.57;1.30;;;14.70;99.90;;;;;;5136484;27;20194;-50
2023/08/06 03:58:42;;;;;;;4.97;1.17;;;14.70;99.90;;;;;;5136565;27;20178;-49
2023/08/06 04:01:08;;;;;;;1.40;1.17;;;14.70;99.90;;;;;;5118101;27;20191;-50
2023/08/06 04:03:34;;;;;;;2.53;1.07;;;14.70;99.90;;;;;;5136288;27;20209;-50
2023/08/06 04:06:01;;;;;;;3.67;1.20;;;14.70;99.90;;;;;;5136254;27;20214;-50
2023/08/06 04:08:26;;;;;;;1.37;1.10;;;14.60;99.90;;;;;;5136462;27;20193;-50
2023/08/06 04:10:52;;;;;;;1.40;1.20;;;14.70;99.90;;;;;;5136629;27;20174;-49
2023/08/06 04:13:18;;;;;;;2.20;1.20;;;14.70;99.90;;;;;;5136194;27;20195;-50
2023/08/06 04:15:44;;;;;;;2.43;1.23;;;14.60;99.90;;;;;;5136231;27;20201;-50
2023/08/06 04:18:10;;;;;;;4.03;1.17;;;14.60;99.90;;;;;;5117719;27;20189;-50
2023/08/06 04:20:45;;;;;;;1.10;0.93;;;14.60;99.90;;;;;;5136345;27;20185;-51
2023/08/06 04:23:11;;;;;;;2.93;1.03;;;14.60;99.90;;;;;;5136328;27;20181;-49
2023/08/06 04:25:36;;;;;;;3.03;1.00;;;14.70;99.90;;;;;;5136160;27;20228;-50
2023/08/06 04:28:02;;;;;;;1.47;0.87;;;14.70;99.90;;;;;;5135897;27;20205;-49
2023/08/06 04:30:28;;;;;;;2.13;0.90;;;14.70;99.90;;;;;;5136121;27;20193;-50
2023/08/06 04:32:53;;;;;;;2.23;0.73;;;14.70;99.90;;;;;;5135564;27;20260;-50
2023/08/06 04:35:19;;;;;;;0.80;0.80;;;14.70;99.90;;;;;;5118511;27;20272;-49
2023/08/06 04:37:44;;;;;;;2.63;1.00;;;14.70;99.90;;;;;;5096974;28;20648;-50
2023/08/06 04:40:10;;;;;;;2.33;0.93;;;14.70;99.90;;;;;;5115177;28;20243;-50
2023/08/06 04:42:36;;;;;;;3.00;1.17;;;14.60;99.90;;;;;;5096758;28;20197;-49
2023/08/06 04:45:02;;;;;;;2.77;1.10;;;14.70;99.90;;;;;;5114938;28;20197;-49
2023/08/06 04:47:28;;;;;;;3.87;1.43;;;14.70;99.90;;;;;;5096710;28;20209;-50
2023/08/06 04:49:54;;;;;;;2.03;1.00;;;14.70;99.90;;;;;;5096792;28;20637;-49
2023/08/06 04:52:19;;;;;;;1.57;1.10;;;14.70;99.90;;;;;;5114750;28;20713;-50
2023/08/06 04:54:45;;;;;;;1.10;1.00;;;14.70;99.90;;;;;;5096561;28;20661;-50
2023/08/06 04:57:10;;;;;;;1.20;1.00;;;14.70;99.90;;;;;;5114829;28;20291;-50
2023/08/06 04:59:36;;;;;;;5.37;0.97;;;14.70;99.90;;;;;;5096596;28;20645;-50
2023/08/06 05:02:02;;;;;;;2.57;1.03;;;14.80;99.90;;;;;;5096446;28;20186;-49
2023/08/06 05:04:28;;;;;;;4.70;1.10;;;14.80;99.90;;;;;;5114723;28;20192;-50
2023/08/06 05:06:54;;;;;;;1.43;1.07;;;14.80;99.90;;;;;;5114807;28;20206;-49
2023/08/06 05:09:20;;;;;;;2.10;1.33;;;14.80;99.90;;;;;;5114600;28;20519;-50
2023/08/06 05:11:47;;;;;;;1.67;0.90;;;14.80;99.90;;;;;;5114663;28;20178;-50
2023/08/06 05:14:12;;;;;;;1.67;1.10;;;14.80;99.90;;;;;;5096267;28;20179;-50
2023/08/06 05:16:38;;;;;;;2.17;1.10;;;14.80;99.90;;;;;;5114325;28;20321;-50
2023/08/06 05:19:04;;;;;;;2.07;0.90;;;14.80;99.90;;;;;;5114375;28;20680;-50
2023/08/06 05:21:30;;;;;;;0.97;0.70;;;14.80;99.90;;;;;;5079333;28;20210;-49
2023/08/06 05:23:55;;;;;;;2.10;1.00;;;14.90;99.90;;;;;;5115469;28;20256;-50
2023/08/06 05:26:21;;;;;;;1.07;0.97;;;14.90;99.90;;;;;;5096012;28;20697;-50
2023/08/06 05:28:47;;;;;;;4.07;1.10;;;14.90;99.90;;;;;;5097275;28;20572;-51
2023/08/06 05:31:12;;;;;;;2.70;0.90;;;15.00;99.90;;;;;;5096169;28;20532;-49
2023/08/06 05:33:38;;;;;;;1.50;1.00;;;15.00;99.90;;;;;;5114081;28;20645;-50
2023/08/06 05:36:04;;;;;;;1.20;1.10;;;15.00;99.90;;;;;;5114354;28;20232;-49
2023/08/06 05:38:30;;;;;;;2.10;0.97;;;15.10;99.90;;;;;;5095885;28;20186;-48
2023/08/06 05:40:56;;;;;;;1.87;0.90;;;15.10;99.90;;;;;;5114023;28;20181;-50
2023/08/06 05:43:22;;;;;;;1.30;0.90;;;15.20;99.90;;;;;;5114262;28;20657;-45
2023/08/06 05:45:50;;;;;;;1.37;0.93;;;15.20;99.90;;;;;;5114674;28;20221;-49
2023/08/06 05:48:15;;;;;;;1.23;0.90;;;15.20;99.90;;;;;;5114003;28;20325;-49
2023/08/06 05:50:41;;;;;;;2.93;0.80;;;15.20;99.90;;;;;;5095759;28;20193;-50
2023/08/06 05:53:07;;;;;;;1.37;1.00;;;15.30;99.90;;;;;;5114254;28;20185;-49
2023/08/06 05:55:34;;;;;;;3.20;1.07;;;15.30;99.90;;;;;;5095534;28;20218;-49
2023/08/06 05:57:59;;;;;;;1.53;0.70;;;15.30;99.90;;;;;;5114207;28;20196;-48
2023/08/06 06:00:25;;;;;;;1.67;0.80;;;15.40;99.90;;;;;;5095692;28;20617;-51
2023/08/06 06:02:51;;;;;;;0.97;0.80;;;15.40;99.90;;;;;;5095639;28;20277;-50
2023/08/06 06:05:16;;;;;;;1.07;0.83;;;15.40;99.90;;;;;;5095487;28;20213;-49
2023/08/06 06:07:42;;;;;;;0.73;0.73;;;15.40;99.90;;;;;;5114274;28;20193;-49
2023/08/06 06:10:08;;;;;;;2.20;0.70;;;15.50;99.90;;;;;;5095555;28;20243;-49
2023/08/06 06:12:34;;;;;;;0.83;0.60;;;15.50;99.90;;;;;;5113829;28;20178;-49
2023/08/06 06:15:00;;;;;;;0.63;0.63;;;15.50;99.90;;;;;;5095527;28;20266;-49
2023/08/06 06:17:27;;;;;;;1.50;0.70;;;15.50;99.90;;;;;;5095318;28;20255;-49
2023/08/06 06:19:52;;;;;;;2.03;0.90;;;15.50;99.90;;;;;;5113877;28;20690;-49
2023/08/06 06:22:18;;;;;;;0.53;0.40;;;15.50;99.90;;;;;;5113615;28;20223;-50
2023/08/06 06:24:44;;;;;;;0.63;0.57;;;15.50;99.90;;;;;;5113751;28;20730;-49
2023/08/06 06:27:09;;;;;;;0.50;0.50;;;15.60;99.90;;;;;;5079049;28;20213;-49
2023/08/06 06:29:35;;;;;;;2.10;0.60;;;15.50;99.90;;;;;;5095568;28;20239;-49
2023/08/06 06:32:01;;;;;;;1.27;0.50;;;15.50;99.90;;;;;;5095340;28;20197;-48
2023/08/06 06:34:26;;;;;;;0.47;0.47;;;15.60;99.90;;;;;;5113480;28;20193;-48
2023/08/06 06:36:52;;;;;;;1.07;0.40;;;15.60;99.90;;;;;;5113446;28;20674;-48
2023/08/06 06:39:18;;;;;;;1.70;0.40;;;15.60;99.90;;;;;;5113502;28;20872;-48
2023/08/06 06:41:44;;;;;;;0.67;0.47;;;15.60;99.90;;;;;;5113397;28;20182;-48
2023/08/06 06:44:10;;;;;;;5.30;0.43;;;15.60;99.90;;;;;;5113741;28;20177;-50
2023/08/06 06:46:35;;;;;;;1.03;0.30;;;15.60;99.90;;;;;;5095036;28;20275;-48
2023/08/06 06:49:01;;;;;;;0.40;0.40;;;15.60;99.90;;;;;;5095066;28;20189;-48
2023/08/06 06:51:26;;;;;;;1.10;0.50;;;15.70;99.90;;;;;;5113366;28;20174;-48
2023/08/06 06:53:52;;;;;;;0.37;0.37;;;15.70;99.90;;;;;;5113890;28;20174;-48
2023/08/06 06:56:18;;;;;;;0.77;0.50;;;15.70;99.90;;;;;;5098872;28;20262;-48
2023/08/06 06:58:43;;;;;;;1.03;0.43;;;15.70;99.90;;;;;;5117312;28;20171;-50
2023/08/06 07:01:11;;;;;;;0.40;0.40;;;15.70;99.90;;;;;;5117468;28;20186;-49
2023/08/06 07:03:37;;;;;;;0.60;0.40;;;15.60;99.90;;;;;;5116931;28;20182;-49
2023/08/06 07:06:03;;;;;;;0.90;0.40;;;15.60;99.90;;;;;;5117001;28;20214;-48
2023/08/06 07:08:29;;;;;;;1.50;0.50;;;15.60;99.90;;;;;;5116756;28;20194;-50
2023/08/06 07:11:05;;;;;;;0.50;0.50;;;15.50;99.90;;;;;;5116751;28;20185;-47
2023/08/06 07:13:31;;;;;;;0.30;0.30;;;15.50;99.90;;;;;;5116712;28;20189;-48
2023/08/06 07:15:57;;;;;;;0.97;0.40;;;15.50;99.90;;;;;;5098323;28;20206;-49
2023/08/06 07:18:23;;;;;;;0.63;0.60;;;15.40;99.90;;;;;;5116652;28;20190;-47
2023/08/06 07:20:53;;;;;;;0.90;0.60;;;15.40;99.90;;;;;;5116490;28;20222;-49
2023/08/06 07:23:21;;;;;;;0.60;0.50;;;15.40;99.90;;;;;;5116449;28;20198;-48
2023/08/06 07:25:47;;;;;;;1.67;0.60;;;15.40;99.90;;;;;;5116347;28;20740;-49
2023/08/06 07:28:14;;;;;;;1.27;0.60;;;15.50;99.90;;;;;;5116350;28;20650;-48
2023/08/06 07:30:40;;;;;;;0.77;0.50;;;15.60;99.90;;;;;;5116616;28;20177;-48
2023/08/06 07:33:06;;;;;;;1.30;0.80;;;15.80;99.90;;;;;;5116355;28;20240;-48
2023/08/06 07:35:32;;;;;;;1.13;0.50;;;15.90;99.90;;;;;;5116161;28;20225;-48
2023/08/06 07:37:58;;;;;;;1.57;0.60;;;16.00;99.90;;;;;;5116581;28;20178;-49
2023/08/06 07:40:23;;;;;;;0.50;0.50;;;16.00;99.90;;;;;;5116344;28;20174;-47
2023/08/06 07:42:49;;;;;;;1.53;0.70;;;16.10;99.90;;;;;;5097699;28;20196;-47
2023/08/06 07:45:15;;;;;;;1.40;0.80;;;16.10;99.90;;;;;;5115893;28;20297;-48
2023/08/06 07:47:40;;;;;;;0.97;0.63;;;16.20;99.90;;;;;;5116191;28;20263;-47
2023/08/06 07:50:06;;;;;;;1.30;0.70;;;16.30;99.90;;;;;;5115954;28;20174;-49
2023/08/06 07:52:32;;;;;;;1.70;0.90;;;16.30;99.90;;;;;;5115942;28;20182;-48
2023/08/06 07:54:58;;;;;;;1.03;0.80;;;16.30;99.90;;;;;;5116455;28;20189;-50
2023/08/06 07:57:24;;;;;;;0.97;0.77;;;16.30;99.90;;;;;;5097901;28;20216;-51
2023/08/06 07:59:50;;;;;;;1.13;0.83;;;16.40;99.90;;;;;;5116187;28;20178;-49
2023/08/06 08:02:32;;;;;;;1.10;0.90;;;16.30;99.90;;;;;;5116903;28;20162;-48
2023/08/06 08:04:59;;;;;;;0.93;0.83;;;16.30;99.90;;;;;;5100051;28;20242;-49
2023/08/06 08:07:28;;;;;;;1.57;0.80;;;16.20;99.90;;;;;;5115820;28;20324;-47
2023/08/06 08:09:55;;;;;;;2.53;0.90;;;16.20;99.90;;;;;;5097890;28;20182;-48
2023/08/06 08:12:21;;;;;;;0.97;0.97;;;16.30;99.90;;;;;;5098215;28;20312;-49
2023/08/06 08:15:03;;;;;;;1.10;0.97;;;16.20;99.90;;;;;;5115863;28;20260;-49
2023/08/06 08:21:03;;;;;;;0.87;0.87;;;16.30;99.90;;;;;;5116675;28;20193;-49
2023/08/06 08:23:31;;;;;;;2.37;0.70;;;16.20;99.90;;;;;;5097804;28;20221;-49
2023/08/06 08:26:02;;;;;;;1.33;0.70;;;16.10;99.90;;;;;;5097908;28;20218;-47
2023/08/06 08:28:51;;;;;;;1.73;1.10;;;16.10;99.90;;;;;;5098127;28;20178;-50
2023/08/06 08:31:18;;;;;;;0.57;0.57;;;15.90;99.90;;;;;;5100569;28;20194;-49
2023/08/06 09:18:52;;;;;;;0.40;0.40;;;14.60;99.90;;;;;;5134079;27;20611;-47
2023/08/06 09:22:01;;;;;;;0.60;0.60;;;14.60;99.90;;;;;;5136322;27;20197;-50
2023/08/06 09:24:33;;;;;;;0.63;0.50;;;14.60;99.90;;;;;;5102281;27;20632;-45
2023/08/06 09:27:27;;;;;;;1.10;0.53;;;14.50;99.90;;;;;;5117378;27;20205;-45
2023/08/06 09:29:53;;;;;;;0.60;0.60;;;14.40;99.90;;;;;;5115262;27;20661;-44
2023/08/06 09:32:20;;;;;;;0.80;0.67;;;14.40;99.90;;;;;;5117667;27;20221;-52
2023/08/06 09:35:33;;;;;;;3.07;0.90;;;14.30;99.90;;;;;;5117832;27;20188;-50
2023/08/06 09:38:37;;;;;;;3.47;0.73;;;14.30;99.90;;;;;;5136202;27;20181;-49
2023/08/06 12:52:46;;;;;;;6.20;1.87;;;15.30;99.90;;;;;;5073383;22;20568;-90
2023/08/06 12:55:12;;;;;;;2.70;1.60;;;15.40;99.90;;;;;;5083213;28;20207;-91
2023/08/06 12:57:41;;;;;;;3.63;1.60;;;15.40;99.90;;;;;;5066924;28;20192;-91
2023/08/06 13:00:07;;;;;;;5.33;1.40;;;15.40;99.90;;;;;;5066859;28;20192;-91
2023/08/06 13:02:32;;;;;;;1.70;1.07;;;15.50;99.90;;;;;;5083692;28;20210;-93
2023/08/06 13:04:58;;;;;;;3.53;1.70;;;15.60;99.90;;;;;;5061342;28;20207;-88
2023/08/06 13:07:23;;;;;;;2.20;1.40;;;15.70;99.90;;;;;;5049338;28;20214;-85
2023/08/06 13:09:49;;;;;;;4.97;1.50;;;15.60;99.90;;;;;;5099689;28;20215;-81
2023/08/06 13:12:14;;;;;;;3.33;1.43;;;15.40;99.90;;;;;;5079299;28;20218;-92
2023/08/06 13:14:41;;;;;;;6.50;1.97;;;15.70;99.90;;;;;;5081296;28;20204;-91
2023/08/06 13:17:09;;;;;;;8.03;1.70;;;15.70;99.90;;;;;;5047353;28;20191;-91
2023/08/06 13:19:35;;;;;;;3.93;1.60;;;15.80;99.90;;;;;;5082401;28;20183;-90
2023/08/06 13:22:04;;;;;;;5.63;1.60;;;15.80;99.90;;;;;;5064334;28;20191;-90
2023/08/06 13:24:30;;;;;;;5.17;1.60;;;15.90;99.90;;;;;;5063496;28;20211;-91
2023/08/06 13:26:56;;;;;;;3.43;0.97;;;15.80;99.90;;;;;;5062922;28;20226;-89
2023/08/06 13:29:21;;;;;;;5.10;1.50;;;17.20;99.90;;;;;;5064167;28;20262;-92
2023/08/06 13:31:47;;;;;;;3.47;1.07;;;16.20;99.90;;;;;;5064679;28;20183;-90
2023/08/06 13:34:12;;;;;;;5.70;1.63;;;16.90;99.90;;;;;;5064045;28;20227;-91
2023/08/06 13:36:38;;;;;;;2.67;0.83;;;16.30;99.90;;;;;;5063571;28;20218;-91
2023/08/06 13:39:05;;;;;;;4.27;1.30;;;15.80;99.90;;;;;;5081928;28;20251;-91
2023/08/06 13:41:30;;;;;;;3.93;1.10;;;17.00;99.90;;;;;;5082570;28;20258;-90
2023/08/06 13:43:56;;;;;;;4.60;1.07;;;15.90;99.90;;;;;;5063535;28;20214;-92
2023/08/06 13:46:21;;;;;;;2.00;0.87;;;16.50;99.90;;;;;;5064020;28;20269;-90
2023/08/06 13:48:50;;;;;;;5.27;0.90;;;15.70;99.90;;;;;;5064070;28;20183;-90
2023/08/06 13:51:16;;;;;;;1.87;0.73;;;16.50;99.90;;;;;;5064092;28;20219;-90
2023/08/06 13:53:43;;;;;;;5.90;1.43;;;15.90;99.90;;;;;;5064990;28;20207;-90
2023/08/06 13:56:11;;;;;;;6.23;1.00;;;15.90;99.90;;;;;;5081904;28;20266;-90
2023/08/06 13:58:37;;;;;;;6.17;1.00;;;16.00;99.90;;;;;;5082946;28;20183;-91
2023/08/06 14:01:02;;;;;;;3.70;0.90;;;16.00;99.90;;;;;;5064809;28;20192;-91
2023/08/06 14:03:28;;;;;;;2.80;0.80;;;16.30;99.90;;;;;;5083958;28;20222;-90
2023/08/06 14:05:56;;;;;;;3.40;0.90;;;16.20;99.90;;;;;;5068981;28;20235;-90
2023/08/06 14:08:23;;;;;;;5.50;0.90;;;16.30;99.90;;;;;;5086961;28;20526;-90
2023/08/06 14:10:50;;;;;;;3.03;0.60;;;16.30;99.90;;;;;;5069021;28;20708;-89
2023/08/06 14:13:15;;;;;;;2.10;0.87;;;16.30;99.90;;;;;;5067918;28;20206;-90
2023/08/06 14:15:46;;;;;;;3.17;0.70;;;16.30;99.90;;;;;;5086914;28;20578;-90
2023/08/06 14:18:12;;;;;;;4.10;0.70;;;16.40;99.90;;;;;;5068617;28;20677;-91
2023/08/06 14:20:38;;;;;;;2.03;0.87;;;16.40;99.90;;;;;;5085678;28;20196;-90
2023/08/06 14:23:04;;;;;;;1.90;0.50;;;16.70;99.90;;;;;;5068452;28;20246;-91
2023/08/06 14:25:29;;;;;;;2.57;0.60;;;16.40;99.90;;;;;;5086897;28;20215;-91
2023/08/06 14:27:55;;;;;;;1.83;0.43;;;17.10;99.90;;;;;;5068912;28;20251;-91
2023/08/06 14:30:20;;;;;;;2.90;0.60;;;16.50;99.90;;;;;;5085653;28;20191;-90
2023/08/06 14:32:46;;;;;;;1.03;0.40;;;16.30;99.90;;;;;;5086045;28;20199;-91
2023/08/06 14:35:12;;;;;;;0.87;0.50;;;16.60;99.90;;;;;;5086895;28;20273;-90
2023/08/06 14:37:39;;;;;;;2.37;0.87;;;16.60;99.90;;;;;;5067606;28;20209;-90
2023/08/06 14:40:05;;;;;;;2.53;0.70;;;16.50;99.90;;;;;;5067945;28;20617;-90
2023/08/06 14:42:31;;;;;;;2.10;0.50;;;16.50;99.90;;;;;;5066510;28;20192;-90
2023/08/06 14:44:56;;;;;;;1.77;0.60;;;16.50;99.90;;;;;;5066985;28;20580;-91
2023/08/06 14:47:22;;;;;;;3.67;0.70;;;16.70;99.90;;;;;;5067552;28;20201;-89
2023/08/06 14:49:49;;;;;;;1.60;0.60;;;16.10;99.90;;;;;;5067640;28;20325;-91
2023/08/06 14:52:16;;;;;;;2.77;0.73;;;16.10;99.90;;;;;;5068153;28;20203;-91
2023/08/06 14:54:43;;;;;;;1.87;0.80;;;16.70;99.90;;;;;;5086319;28;20204;-90
2023/08/06 14:57:13;;;;;;;1.60;0.60;;;16.70;99.90;;;;;;5085965;28;20198;-91
2023/08/06 14:59:40;;;;;;;2.23;0.80;;;16.80;99.90;;;;;;5051032;28;20564;-91
2023/08/06 15:02:06;;;;;;;1.90;0.83;;;16.70;99.90;;;;;;5085959;28;20183;-90
2023/08/06 15:04:32;;;;;;;3.13;0.90;;;17.00;99.90;;;;;;5085028;28;20207;-90
2023/08/06 15:06:57;;;;;;;2.77;0.80;;;16.60;99.90;;;;;;5066973;28;20223;-90
2023/08/06 15:09:23;;;;;;;4.23;0.97;;;17.00;99.90;;;;;;5066570;28;20191;-91
2023/08/06 15:11:49;;;;;;;1.77;0.80;;;16.90;99.90;;;;;;5065834;28;20196;-91
2023/08/06 15:14:15;;;;;;;4.10;0.90;;;16.70;99.90;;;;;;5065825;28;20223;-91
2023/08/06 15:16:41;;;;;;;1.40;0.87;;;16.80;99.90;;;;;;5065980;28;20195;-91
2023/08/06 15:19:06;;;;;;;5.17;1.27;;;16.70;99.90;;;;;;5066740;28;20195;-89
2023/08/06 15:21:32;;;;;;;5.13;1.00;;;16.70;99.90;;;;;;5093679;28;20262;-89
2023/08/06 15:23:58;;;;;;;4.70;1.20;;;16.70;99.90;;;;;;5064898;28;20198;-91
2023/08/06 15:26:25;;;;;;;1.73;0.90;;;16.70;99.90;;;;;;5065607;28;20404;-91
2023/08/06 15:28:50;;;;;;;2.53;0.80;;;16.40;99.90;;;;;;5065735;28;20188;-89
2023/08/06 15:31:20;;;;;;;2.87;0.80;;;16.80;99.90;;;;;;5064408;28;20218;-90
2023/08/06 15:33:45;;;;;;;2.90;1.03;;;17.10;99.90;;;;;;5063819;28;20219;-90
2023/08/06 15:36:11;;;;;;;3.63;0.90;;;16.70;99.90;;;;;;5063490;28;20200;-90
2023/08/06 15:38:36;;;;;;;2.23;1.00;;;16.70;99.90;;;;;;5082035;28;20203;-91
2023/08/06 15:41:02;;;;;;;1.20;0.70;;;17.20;99.90;;;;;;5063798;28;20206;-90
2023/08/06 15:43:27;;;;;;;2.20;0.73;;;16.90;99.90;;;;;;5062047;28;20196;-91
2023/08/06 15:45:53;;;;;;;2.87;0.80;;;16.60;99.90;;;;;;5085083;28;20211;-93
2023/08/06 15:48:18;;;;;;;2.07;0.60;;;16.60;99.90;;;;;;5064158;28;20250;-91
2023/08/06 15:50:45;;;;;;;2.37;0.80;;;16.60;99.90;;;;;;5082912;28;20188;-90
2023/08/06 15:53:12;;;;;;;1.17;0.80;;;16.70;99.90;;;;;;5082060;28;20343;-91
2023/08/06 15:55:38;;;;;;;1.67;0.93;;;16.50;99.90;;;;;;5064887;28;20813;-90
2023/08/06 15:58:04;;;;;;;1.33;0.70;;;16.50;99.90;;;;;;5082341;28;20233;-91
2023/08/06 16:00:31;;;;;;;3.23;1.10;;;16.40;99.90;;;;;;5048432;28;20192;-91
2023/08/06 16:02:56;;;;;;;3.23;0.80;;;16.40;99.90;;;;;;5082787;28;20643;-92
2023/08/06 16:05:22;;;;;;;2.93;1.10;;;16.40;99.90;;;;;;5083550;28;20211;-90
2023/08/06 16:07:50;;;;;;;5.30;1.57;;;16.20;99.90;;;;;;5065553;28;20195;-92
2023/08/06 16:10:16;;;;;;;3.37;1.30;;;16.50;99.90;;;;;;5065745;28;20188;-90
2023/08/06 16:12:41;;;;;;;7.40;1.10;;;16.20;99.90;;;;;;5064913;28;20228;-92
2023/08/06 16:15:07;;;;;;;5.43;1.17;;;16.40;99.90;;;;;;5083993;28;20655;-92
2023/08/06 16:17:33;;;;;;;3.67;1.30;;;16.20;99.90;;;;;;5064775;28;20265;-91
2023/08/06 16:20:00;;;;;;;2.90;1.23;;;16.20;99.90;;;;;;5064497;28;20211;-90
2023/08/06 16:22:25;;;;;;;2.67;0.97;;;17.20;99.90;;;;;;5066415;28;20596;-92
2023/08/06 16:24:51;;;;;;;6.27;1.23;;;15.70;99.90;;;;;;5083029;28;20213;-90
2023/08/06 16:27:17;;;;;;;2.63;0.87;;;16.10;99.90;;;;;;5065185;28;20183;-90
2023/08/06 16:29:45;;;;;;;3.77;1.10;;;16.00;99.90;;;;;;5066005;28;20213;-91
2023/08/06 16:32:10;;;;;;;6.07;1.67;;;16.00;99.90;;;;;;5085350;28;20179;-92
2023/08/06 16:34:38;;;;;;;4.53;1.30;;;16.50;99.90;;;;;;5085134;28;20196;-92
2023/08/06 16:37:07;;;;;;;4.43;1.03;;;15.80;99.90;;;;;;5084882;28;20215;-94
2023/08/06 16:39:33;;;;;;;4.30;1.10;;;15.70;99.90;;;;;;5068593;28;20698;-90
2023/08/06 16:42:00;;;;;;;2.63;0.90;;;16.60;99.90;;;;;;5051389;28;20187;-91
2023/08/06 16:44:29;;;;;;;2.40;0.93;;;16.00;99.90;;;;;;5067880;28;20702;-92
2023/08/06 16:46:54;;;;;;;2.07;0.90;;;14.90;99.90;;;;;;5085434;28;20243;-92
2023/08/06 16:49:20;;;;;;;2.57;0.87;;;14.80;99.90;;;;;;5070745;28;20192;-93
2023/08/06 16:51:46;;;;;;;3.50;0.90;;;15.60;99.90;;;;;;5054927;28;20643;-92
2023/08/06 16:54:12;;;;;;;3.43;0.70;;;14.70;99.90;;;;;;5088036;28;20252;-93
2023/08/06 16:56:37;;;;;;;2.53;0.90;;;15.00;99.90;;;;;;5071167;28;20191;-91
2023/08/06 16:59:03;;;;;;;2.00;0.70;;;15.40;99.90;;;;;;5069300;28;20273;-91
2023/08/06 17:01:29;;;;;;;0.70;0.60;;;15.00;99.90;;;;;;5068071;28;20549;-91
2023/08/06 17:03:55;;;;;;;2.10;0.90;;;14.90;99.90;;;;;;5067145;28;20607;-92
2023/08/06 17:06:21;;;;;;;1.07;0.60;;;14.70;99.90;;;;;;5086620;28;20338;-91
2023/08/06 17:08:49;;;;;;;1.43;0.70;;;15.00;99.90;;;;;;5068998;28;20188;-91
2023/08/06 17:11:14;;;;;;;1.00;0.70;;;14.40;99.90;;;;;;5069196;28;20218;-93
2023/08/06 17:13:43;;;;;;;2.17;0.73;;;14.70;99.90;;;;;;5068567;28;20203;-95
2023/08/06 17:16:08;;;;;;;1.73;0.73;;;14.90;99.90;;;;;;5067842;28;20194;-93
2023/08/06 17:18:34;;;;;;;0.77;0.50;;;14.40;99.90;;;;;;5086382;28;20191;-92
2023/08/06 17:21:01;;;;;;;2.33;0.60;;;15.50;99.90;;;;;;5067344;28;20211;-93
2023/08/06 17:23:28;;;;;;;0.57;0.37;;;14.80;99.90;;;;;;5084942;28;20184;-92
2023/08/06 17:25:56;;;;;;;1.53;0.50;;;14.40;99.90;;;;;;5067861;28;20219;-94
2023/08/06 17:28:22;;;;;;;3.60;0.60;;;14.50;99.90;;;;;;5084479;28;20175;-93
2023/08/06 17:30:48;;;;;;;1.97;0.40;;;14.90;99.90;;;;;;5066821;28;20237;-92
2023/08/06 17:33:13;;;;;;;1.03;0.40;;;14.90;99.90;;;;;;5067195;28;20187;-92
2023/08/06 17:35:43;;;;;;;0.97;0.40;;;14.30;99.90;;;;;;5085358;28;20218;-92
2023/08/06 17:38:10;;;;;;;1.03;0.40;;;14.30;99.90;;;;;;5066795;28;20198;-93
2023/08/06 17:40:36;;;;;;;0.33;0.30;;;14.40;99.90;;;;;;5068824;28;20266;-92
2023/08/06 17:43:01;;;;;;;0.73;0.43;;;14.20;99.90;;;;;;5068307;28;20290;-91
2023/08/06 17:45:28;;;;;;;1.50;0.40;;;14.10;99.90;;;;;;5065172;28;20215;-90
2023/08/06 17:47:54;;;;;;;1.07;0.40;;;13.70;99.90;;;;;;5084186;28;20183;-94
2023/08/06 17:50:20;;;;;;;0.23;0.23;;;14.80;99.90;;;;;;5066815;28;20179;-93
2023/08/06 17:52:46;;;;;;;0.90;0.37;;;13.90;99.90;;;;;;5067198;28;20230;-93
2023/08/06 17:55:12;;;;;;;1.87;0.50;;;13.80;99.90;;;;;;5066384;28;20199;-92
2023/08/06 17:57:37;;;;;;;2.37;0.60;;;14.10;99.90;;;;;;5083311;28;20247;-92
2023/08/06 18:00:03;;;;;;;0.77;0.47;;;14.60;99.90;;;;;;5065009;28;20184;-91
2023/08/06 18:02:29;;;;;;;1.60;0.67;;;13.70;99.90;;;;;;5065707;28;20218;-90
2023/08/06 18:04:55;;;;;;;2.83;0.60;;;13.70;99.90;;;;;;5065955;28;20207;-92
2023/08/06 18:07:20;;;;;;;1.40;0.43;;;13.50;99.90;;;;;;5083444;28;20203;-91
2023/08/06 18:09:46;;;;;;;5.30;1.00;;;13.50;99.90;;;;;;5066531;28;20218;-90
2023/08/06 18:12:11;;;;;;;3.00;0.70;;;13.60;99.90;;;;;;5083471;28;20188;-92
2023/08/06 18:14:37;;;;;;;1.70;0.40;;;13.90;99.90;;;;;;5065669;28;20212;-91
2023/08/06 18:17:03;;;;;;;4.33;0.73;;;13.70;99.90;;;;;;5084208;28;20235;-92
2023/08/06 18:19:31;;;;;;;2.13;1.00;;;13.60;99.90;;;;;;5083884;28;20265;-91
2023/08/06 18:21:58;;;;;;;2.90;0.60;;;14.10;99.90;;;;;;5082800;28;20267;-92
2023/08/06 18:24:24;;;;;;;1.37;0.63;;;13.60;99.90;;;;;;5066311;28;20227;-91
2023/08/06 18:26:53;;;;;;;1.63;0.60;;;13.10;99.90;;;;;;5084103;28;20667;-92